Time;durP1;ratioP1;P1;durP2;ratioP2;P2;SDS_P1;SDS_P2;PMS_P1;PMS_P2;Temp;Humidity;BMP_temperature;BMP_pressure;BME280_temperature;BME280_humidity;BME280_pressure;Samples;Min_cycle;Max_cycle;Signal;HPM_P1;HPM_P2
2021/11/21 00:00:31;;;;;;;9.80;5.45;;;;;;;12.02;73.06;101563.47;5018815;28;20120;-75
2021/11/21 00:02:58;;;;;;;9.52;5.90;;;;;;;12.02;72.85;101566.06;5049903;28;20447;-76
2021/11/21 00:05:23;;;;;;;10.70;5.60;;;;;;;12.01;73.24;101560.00;5024983;28;20039;-75
2021/11/21 00:07:49;;;;;;;8.25;5.72;;;;;;;11.99;73.50;101556.47;5057622;28;20051;-75
2021/11/21 00:10:14;;;;;;;9.98;5.85;;;;;;;11.98;73.27;101556.44;5034223;28;20036;-75
2021/11/21 00:12:39;;;;;;;10.00;5.82;;;;;;;11.97;73.48;101555.53;5040776;28;20118;-75
2021/11/21 00:15:06;;;;;;;9.48;5.97;;;;;;;11.98;73.68;101559.03;5049224;28;20048;-75
2021/11/21 00:17:31;;;;;;;11.43;5.82;;;;;;;11.98;73.73;101548.59;5055716;28;20500;-75
2021/11/21 00:19:57;;;;;;;11.23;5.80;;;;;;;11.99;73.68;101545.13;5051839;28;20062;-76
2021/11/21 00:22:24;;;;;;;15.45;5.90;;;;;;;12.01;73.51;101538.22;5037074;28;21254;-75
2021/11/21 00:24:50;;;;;;;10.77;5.30;;;;;;;12.03;72.94;101532.13;5037035;28;20610;-75
2021/11/21 00:27:15;;;;;;;8.38;5.18;;;;;;;12.04;72.96;101539.13;5047681;28;20032;-75
2021/11/21 00:29:41;;;;;;;8.70;5.25;;;;;;;12.05;72.61;101527.84;5051054;28;20123;-77
2021/11/21 00:32:07;;;;;;;11.02;5.03;;;;;;;12.09;72.43;101527.03;5041750;28;20438;-76
2021/11/21 00:34:33;;;;;;;9.30;5.70;;;;;;;12.12;72.18;101524.47;5046718;28;20155;-75
2021/11/21 00:36:58;;;;;;;10.25;5.47;;;;;;;12.16;72.28;101536.75;5021990;28;20047;-75
2021/11/21 00:39:24;;;;;;;8.95;5.53;;;;;;;12.16;72.29;101531.50;5048546;28;20103;-75
2021/11/21 00:41:50;;;;;;;10.65;5.20;;;;;;;12.17;72.40;101533.28;5052692;28;20082;-76
2021/11/21 00:44:15;;;;;;;7.78;4.93;;;;;;;12.20;72.61;101527.19;5037331;28;20051;-76
2021/11/21 00:46:40;;;;;;;9.88;5.10;;;;;;;12.17;72.81;101524.56;5049752;28;20412;-76
2021/11/21 00:49:12;;;;;;;10.50;5.55;;;;;;;12.14;73.36;101527.09;5028759;28;20127;-76
2021/11/21 00:51:38;;;;;;;7.20;4.90;;;;;;;12.13;73.77;101520.13;5033457;28;20121;-75
2021/11/21 00:56:48;;;;;;;11.75;5.13;;;;;;;12.18;73.55;101536.78;5046804;28;20526;-77
2021/11/21 00:59:19;;;;;;;9.75;5.35;;;;;;;12.15;74.21;101529.75;5032578;28;20040;-77
2021/11/21 01:01:44;;;;;;;9.18;5.30;;;;;;;12.24;73.67;101529.03;5047190;28;20031;-76
2021/11/21 01:04:10;;;;;;;8.52;4.82;;;;;;;12.22;73.75;101517.66;5028714;28;20039;-76
2021/11/21 01:06:35;;;;;;;12.75;5.30;;;;;;;12.27;74.08;101510.75;5047485;28;20090;-76
2021/11/21 01:09:02;;;;;;;11.90;5.25;;;;;;;12.22;74.42;101508.94;5050113;28;20385;-75
2021/11/21 01:11:29;;;;;;;9.75;5.70;;;;;;;12.18;74.77;101511.50;5039321;28;20394;-76
2021/11/21 01:13:58;;;;;;;10.23;5.38;;;;;;;12.16;74.89;101501.88;5053570;28;21529;-76
2021/11/21 01:16:24;;;;;;;10.35;5.32;;;;;;;12.18;75.04;101506.28;5044249;28;20717;-76
2021/11/21 01:18:49;;;;;;;12.90;5.55;;;;;;;12.24;74.92;101499.41;5029103;28;20039;-76
2021/11/21 01:21:14;;;;;;;13.23;6.20;;;;;;;12.26;74.95;101500.31;5045096;28;20044;-77
2021/11/21 01:23:40;;;;;;;12.73;5.70;;;;;;;12.32;74.90;101501.25;5050068;28;20052;-76
2021/11/21 01:26:08;;;;;;;12.02;5.05;;;;;;;12.32;74.94;101496.03;5049050;28;20409;-77
2021/11/21 01:28:33;;;;;;;13.13;5.53;;;;;;;12.31;75.27;101490.81;5038731;28;20051;-76
2021/11/21 01:30:59;;;;;;;14.50;6.43;;;;;;;12.29;75.68;101490.78;5032160;28;20032;-76
2021/11/21 01:33:24;;;;;;;14.75;6.05;;;;;;;12.28;75.85;101483.78;5050875;28;20040;-76
2021/11/21 01:35:49;;;;;;;12.07;6.05;;;;;;;12.32;75.86;101484.72;5039831;28;20112;-75
2021/11/21 01:38:15;;;;;;;11.48;5.85;;;;;;;12.28;75.97;101490.72;5035047;28;20491;-76
2021/11/21 01:40:41;;;;;;;13.48;5.68;;;;;;;12.32;75.86;101489.94;5046030;28;20044;-75
2021/11/21 01:43:07;;;;;;;11.65;5.70;;;;;;;12.29;76.44;101488.16;5015692;28;20750;-75
2021/11/21 01:45:32;;;;;;;10.95;5.65;;;;;;;12.29;76.05;101482.94;5056640;28;20035;-78
2021/11/21 01:47:58;;;;;;;11.75;6.00;;;;;;;12.28;76.16;101477.66;5042292;28;20041;-74
2021/11/21 01:50:32;;;;;;;10.68;5.95;;;;;;;12.25;76.53;101481.13;5021020;28;20787;-75
2021/11/21 01:52:58;;;;;;;13.73;6.18;;;;;;;12.24;76.70;101473.25;5047209;28;20044;-76
2021/11/21 01:55:25;;;;;;;10.13;6.35;;;;;;;12.24;76.64;101478.47;5024501;28;20039;-77
2021/11/21 01:57:52;;;;;;;11.93;6.20;;;;;;;12.22;76.45;101460.16;5055542;28;20903;-76
2021/11/21 02:00:17;;;;;;;10.30;6.43;;;;;;;12.20;76.46;101465.34;5017513;28;20036;-76
2021/11/21 02:02:44;;;;;;;12.30;7.18;;;;;;;12.23;76.79;101466.25;5040233;28;20043;-77
2021/11/21 02:05:09;;;;;;;9.55;6.47;;;;;;;12.26;76.59;101461.94;5031734;28;20035;-76
2021/11/21 02:07:35;;;;;;;14.30;6.93;;;;;;;12.27;76.65;101455.88;5044053;28;20386;-75
2021/11/21 02:10:00;;;;;;;14.02;7.13;;;;;;;12.24;76.73;101455.84;5045253;28;20097;-76
2021/11/21 02:12:26;;;;;;;15.13;7.32;;;;;;;12.27;76.50;101445.41;5035056;28;21209;-76
2021/11/21 02:14:52;;;;;;;13.15;7.57;;;;;;;12.24;76.95;101444.50;5037028;28;20097;-76
2021/11/21 02:17:17;;;;;;;12.38;7.45;;;;;;;12.27;76.97;101444.53;5033248;28;20053;-76
2021/11/21 02:19:43;;;;;;;12.13;7.07;;;;;;;12.29;77.18;101440.22;5043202;28;20047;-75
2021/11/21 02:22:09;;;;;;;11.23;7.28;;;;;;;12.30;77.20;101436.75;5040249;28;20060;-76
2021/11/21 02:24:34;;;;;;;12.85;7.50;;;;;;;12.32;77.03;101437.66;5050118;28;20043;-76
2021/11/21 02:27:01;;;;;;;13.30;7.55;;;;;;;12.32;77.09;101433.28;5026984;28;20470;-76
2021/11/21 02:29:27;;;;;;;11.48;7.50;;;;;;;12.36;76.80;101431.63;5038190;28;20503;-76
2021/11/21 02:31:52;;;;;;;12.68;7.25;;;;;;;12.38;76.84;101422.06;5035934;28;20044;-76
2021/11/21 02:34:17;;;;;;;10.75;6.95;;;;;;;12.40;76.94;101415.09;5041405;28;20036;-76
2021/11/21 02:36:47;;;;;;;12.60;6.95;;;;;;;12.35;77.27;101422.00;5041063;28;20633;-76
2021/11/21 02:39:13;;;;;;;12.90;7.15;;;;;;;12.37;77.06;101417.69;5046651;28;20390;-76
2021/11/21 02:41:38;;;;;;;12.85;7.00;;;;;;;12.37;76.91;101412.47;5038117;28;20643;-76
2021/11/21 02:44:04;;;;;;;13.38;6.65;;;;;;;12.41;76.90;101404.66;5031096;28;20039;-76
2021/11/21 02:46:31;;;;;;;13.63;6.78;;;;;;;12.40;76.75;101402.03;5037406;28;20043;-77
2021/11/21 02:48:57;;;;;;;9.27;5.90;;;;;;;12.41;77.10;101398.56;5039021;28;20036;-77
2021/11/21 02:51:23;;;;;;;11.98;6.10;;;;;;;12.41;77.25;101399.44;5053017;28;20540;-76
2021/11/21 02:53:48;;;;;;;9.25;5.68;;;;;;;12.42;77.27;101387.25;5058132;28;20116;-76
2021/11/21 02:56:15;;;;;;;8.65;5.28;;;;;;;12.44;77.45;101383.78;5039905;28;20101;-76
2021/11/21 02:58:41;;;;;;;7.80;4.78;;;;;;;12.44;77.25;101385.53;5042240;28;20200;-76
2021/11/21 03:01:14;;;;;;;10.68;5.55;;;;;;;12.38;77.32;101378.47;5035070;28;20044;-76
2021/11/21 03:03:40;;;;;;;7.97;5.28;;;;;;;12.37;77.46;101374.13;5051182;28;20451;-76
2021/11/21 03:06:07;;;;;;;9.40;5.43;;;;;;;12.36;77.74;101380.19;5052893;28;20062;-76
2021/11/21 03:08:32;;;;;;;9.23;4.97;;;;;;;12.41;77.60;101378.53;5017914;28;20067;-75
2021/11/21 03:11:23;;;;;;;12.00;5.43;;;;;;;12.46;77.77;101375.97;5027862;28;20068;-76
2021/11/21 03:13:49;;;;;;;14.13;4.75;;;;;;;12.45;77.63;101375.06;5026004;28;20488;-76
2021/11/21 03:16:14;;;;;;;8.27;3.90;;;;;;;12.45;77.53;101382.03;5040197;28;20058;-76
2021/11/21 03:18:40;;;;;;;7.00;2.85;;;;;;;12.35;77.52;101380.16;5036192;28;20032;-77
2021/11/21 03:21:05;;;;;;;6.97;2.10;;;;;;;12.33;77.56;101371.41;5051146;28;20428;-77
2021/11/21 03:23:31;;;;;;;4.47;1.38;;;;;;;12.27;77.21;101368.72;5051384;28;20044;-76
2021/11/21 03:25:56;;;;;;;7.55;1.30;;;;;;;12.27;76.65;101366.97;5026364;28;20149;-77
2021/11/21 03:28:22;;;;;;;4.90;1.20;;;;;;;12.30;76.52;101366.16;5040111;28;20366;-77
2021/11/21 03:30:47;;;;;;;3.33;1.00;;;;;;;12.27;76.63;101371.31;5027950;28;20038;-77
2021/11/21 03:33:12;;;;;;;5.93;1.08;;;;;;;12.23;76.51;101372.16;5046442;28;20460;-76
2021/11/21 03:35:38;;;;;;;4.70;0.90;;;;;;;12.21;76.85;101374.72;5049673;28;20312;-77
2021/11/21 03:38:03;;;;;;;4.13;0.90;;;;;;;12.20;76.67;101383.44;5033575;28;20040;-76
2021/11/21 03:40:29;;;;;;;6.20;1.05;;;;;;;12.06;77.14;101385.84;5036590;28;20346;-75
2021/11/21 03:42:55;;;;;;;5.15;0.80;;;;;;;12.06;77.14;101391.09;5047019;28;20035;-76
2021/11/21 03:45:21;;;;;;;5.50;1.00;;;;;;;11.86;77.28;101384.66;5027423;28;20256;-76
2021/11/21 03:47:47;;;;;;;4.60;0.77;;;;;;;11.79;77.14;101383.66;5047745;28;20986;-76
2021/11/21 03:50:14;;;;;;;4.07;0.70;;;;;;;11.74;77.04;101374.88;5020327;28;20147;-74
2021/11/21 03:52:41;;;;;;;6.40;0.77;;;;;;;11.74;77.37;101376.63;5043810;28;20256;-75
2021/11/21 03:55:08;;;;;;;7.15;0.80;;;;;;;11.83;76.84;101384.63;5048120;28;20578;-75
2021/11/21 03:57:33;;;;;;;5.28;0.60;;;;;;;11.93;76.52;101385.63;5043093;28;20044;-75
2021/11/21 03:59:59;;;;;;;4.28;0.60;;;;;;;11.94;76.80;101384.78;5041703;28;20589;-75
2021/11/21 04:02:24;;;;;;;4.90;0.70;;;;;;;11.95;76.54;101383.94;5041315;28;20051;-74
2021/11/21 04:04:50;;;;;;;8.48;0.93;;;;;;;11.92;76.69;101378.66;5015317;28;20047;-74
2021/11/21 04:07:15;;;;;;;8.57;1.13;;;;;;;11.91;76.86;101383.00;5050119;28;20623;-76
2021/11/21 04:09:40;;;;;;;5.88;0.88;;;;;;;11.84;77.49;101383.75;5043733;28;20115;-74
2021/11/21 04:12:07;;;;;;;4.57;0.90;;;;;;;11.86;77.18;101376.81;5049994;28;20466;-74
2021/11/21 04:14:33;;;;;;;7.88;0.85;;;;;;;11.74;77.65;101376.63;5039950;28;20055;-74
2021/11/21 04:16:58;;;;;;;5.07;1.00;;;;;;;11.64;77.21;101382.50;5042196;28;20075;-75
2021/11/21 04:19:23;;;;;;;7.85;0.80;;;;;;;11.78;76.63;101378.41;5030249;28;20047;-75
2021/11/21 04:21:49;;;;;;;4.53;0.90;;;;;;;11.68;76.22;101376.47;5050667;28;20040;-75
2021/11/21 04:24:17;;;;;;;7.93;1.08;;;;;;;11.65;75.86;101381.63;5017020;28;20040;-74
2021/11/21 04:26:44;;;;;;;5.50;0.90;;;;;;;11.68;75.53;101381.69;5054819;28;20040;-75
2021/11/21 04:29:11;;;;;;;7.40;1.08;;;;;;;11.61;75.74;101383.31;5045593;28;20044;-75
2021/11/21 04:31:36;;;;;;;4.05;0.70;;;;;;;11.62;75.69;101382.47;5042044;28;20040;-74
2021/11/21 04:34:02;;;;;;;6.50;0.95;;;;;;;11.62;75.71;101382.47;5046172;28;20548;-76
2021/11/21 04:36:27;;;;;;;3.95;0.70;;;;;;;11.61;75.51;101383.31;5033651;28;20490;-75
2021/11/21 04:38:53;;;;;;;6.82;0.88;;;;;;;11.59;75.28;101382.41;5049028;28;20036;-75
2021/11/21 04:41:18;;;;;;;8.80;1.00;;;;;;;11.59;75.31;101385.03;5024976;28;20409;-76
2021/11/21 04:43:43;;;;;;;4.35;1.02;;;;;;;11.58;75.32;101379.81;5035253;28;20040;-75
2021/11/21 04:46:09;;;;;;;5.38;0.85;;;;;;;11.56;75.02;101379.75;5014923;28;20655;-77
2021/11/21 04:48:34;;;;;;;8.68;0.80;;;;;;;11.47;75.81;101383.94;5026951;28;20500;-77
2021/11/21 04:51:00;;;;;;;8.75;0.80;;;;;;;11.48;75.63;101385.69;5048985;28;20606;-76
2021/11/21 04:53:26;;;;;;;9.93;0.93;;;;;;;11.42;75.19;101386.47;5048020;28;20063;-76
2021/11/21 04:55:51;;;;;;;7.43;0.77;;;;;;;11.50;75.04;101379.66;5033549;28;20032;-77
2021/11/21 04:58:17;;;;;;;9.60;1.10;;;;;;;11.47;75.43;101376.09;5040013;28;20401;-76
2021/11/21 05:00:42;;;;;;;9.02;1.00;;;;;;;11.50;75.28;101378.78;5038904;28;20131;-77
2021/11/21 05:03:10;;;;;;;4.97;1.02;;;;;;;11.49;75.25;101383.13;5043141;28;20404;-76
2021/11/21 05:05:36;;;;;;;6.63;1.10;;;;;;;11.48;75.20;101381.34;5051142;28;20598;-76
2021/11/21 05:08:04;;;;;;;5.13;0.70;;;;;;;11.47;75.25;101376.09;5052395;28;20257;-75
2021/11/21 05:10:29;;;;;;;10.43;1.00;;;;;;;11.38;75.38;101375.09;5040755;28;20392;-75
2021/11/21 05:12:54;;;;;;;9.95;1.17;;;;;;;11.43;75.46;101376.91;5050696;28;20662;-75
2021/11/21 05:15:22;;;;;;;6.80;0.90;;;;;;;11.45;75.25;101377.81;5044690;28;20123;-74
2021/11/21 05:17:49;;;;;;;10.00;0.88;;;;;;;11.40;75.22;101375.97;5052951;28;20519;-75
2021/11/21 05:20:16;;;;;;;7.85;1.08;;;;;;;11.44;74.92;101371.72;5025612;28;20036;-75
2021/11/21 05:22:41;;;;;;;6.65;1.05;;;;;;;11.42;75.32;101377.75;5024959;28;20051;-75
2021/11/21 05:25:08;;;;;;;9.50;1.00;;;;;;;11.40;75.41;101377.75;5056693;28;20048;-76
2021/11/21 05:27:33;;;;;;;10.48;1.17;;;;;;;11.37;75.11;101381.16;5048786;28;20040;-74
2021/11/21 05:29:58;;;;;;;11.02;1.30;;;;;;;11.39;74.74;101378.59;5018677;28;20314;-75
2021/11/21 05:32:24;;;;;;;4.47;0.93;;;;;;;11.36;75.15;101382.00;5041955;28;20044;-75
2021/11/21 05:34:51;;;;;;;10.65;1.35;;;;;;;11.34;74.75;101375.03;5035448;28;20093;-75
2021/11/21 05:37:18;;;;;;;9.68;1.10;;;;;;;11.31;74.85;101365.41;5040659;28;20071;-77
2021/11/21 05:39:43;;;;;;;10.38;1.10;;;;;;;11.26;74.50;101364.44;5046424;28;20048;-75
2021/11/21 05:42:09;;;;;;;8.70;1.35;;;;;;;11.24;74.10;101366.13;5051401;28;20032;-76
2021/11/21 05:44:35;;;;;;;9.50;1.40;;;;;;;11.19;73.62;101362.56;5029111;28;20095;-75
2021/11/21 05:47:00;;;;;;;13.10;1.60;;;;;;;11.18;73.66;101372.97;5048759;28;22104;-75
2021/11/21 05:49:25;;;;;;;11.13;1.15;;;;;;;11.10;71.57;101374.56;5026029;28;20103;-77
2021/11/21 05:51:51;;;;;;;9.82;1.10;;;;;;;11.15;71.07;101376.41;5048953;28;20137;-76
2021/11/21 05:54:16;;;;;;;12.43;1.30;;;;;;;11.12;70.15;101371.13;5045954;28;20523;-75
2021/11/21 05:56:42;;;;;;;5.30;1.10;;;;;;;11.09;69.57;101370.19;5034227;28;20067;-75
2021/11/21 05:59:07;;;;;;;10.80;1.15;;;;;;;10.90;68.40;101363.75;5037524;28;20054;-75
2021/11/21 06:01:33;;;;;;;11.20;1.10;;;;;;;11.08;68.88;101368.44;5050709;28;20048;-75
2021/11/21 06:03:59;;;;;;;11.75;1.38;;;;;;;11.04;69.75;101370.09;5054271;28;20520;-75
2021/11/21 06:06:24;;;;;;;8.40;1.00;;;;;;;11.03;69.58;101364.84;5035858;28;20170;-75
2021/11/21 06:08:50;;;;;;;10.57;1.10;;;;;;;10.96;69.43;101369.06;5047084;28;20028;-76
2021/11/21 06:11:16;;;;;;;5.97;1.20;;;;;;;11.04;69.73;101366.63;5038475;28;20149;-76
2021/11/21 06:13:43;;;;;;;5.63;0.80;;;;;;;11.04;69.66;101372.69;5032400;28;20101;-76
2021/11/21 06:16:09;;;;;;;8.73;1.00;;;;;;;11.06;69.41;101368.41;5030100;28;20059;-76
2021/11/21 06:18:34;;;;;;;8.38;1.17;;;;;;;11.08;69.78;101369.31;5040907;28;20043;-76
2021/11/21 06:21:00;;;;;;;9.10;1.00;;;;;;;11.01;66.90;101375.25;5051777;28;20063;-76
2021/11/21 06:23:26;;;;;;;10.60;1.10;;;;;;;11.05;67.36;101371.84;5047662;28;20162;-77
2021/11/21 06:25:51;;;;;;;7.40;1.00;;;;;;;11.08;68.14;101381.47;5027339;28;20139;-77
2021/11/21 06:28:19;;;;;;;4.03;0.70;;;;;;;11.06;68.02;101378.84;5036268;28;20043;-76
2021/11/21 06:30:45;;;;;;;8.93;1.10;;;;;;;10.95;69.34;101375.13;5046876;28;20050;-77
2021/11/21 06:33:10;;;;;;;9.05;0.93;;;;;;;10.88;69.33;101371.53;5049842;28;20101;-77
2021/11/21 06:35:37;;;;;;;6.80;0.80;;;;;;;10.89;69.40;101370.69;5036428;28;20044;-77
2021/11/21 06:38:03;;;;;;;6.78;0.80;;;;;;;10.90;69.83;101377.66;5047947;28;20510;-76
2021/11/21 06:40:29;;;;;;;11.82;1.20;;;;;;;10.87;69.65;101371.47;5042001;28;20603;-77
2021/11/21 06:42:54;;;;;;;7.97;1.55;;;;;;;10.93;69.78;101376.81;5033418;28;20043;-75
2021/11/21 06:45:19;;;;;;;6.20;0.98;;;;;;;10.87;70.16;101376.69;5061595;28;20762;-76
2021/11/21 06:47:45;;;;;;;12.05;1.30;;;;;;;10.90;70.05;101372.44;5045883;28;20528;-76
2021/11/21 06:50:13;;;;;;;4.70;0.85;;;;;;;10.83;69.31;101377.50;5051496;28;20581;-76
2021/11/21 06:52:39;;;;;;;11.20;1.40;;;;;;;10.86;69.50;101383.66;5035136;28;20039;-76
2021/11/21 06:55:06;;;;;;;8.45;1.30;;;;;;;10.85;69.21;101376.69;5037051;28;20461;-76
2021/11/21 06:57:33;;;;;;;10.27;1.42;;;;;;;10.90;69.62;101375.06;5052399;28;20039;-76
2021/11/21 07:00:00;;;;;;;13.18;1.13;;;;;;;10.86;67.35;101381.03;5050976;28;20052;-76
2021/11/21 07:02:25;;;;;;;8.98;1.02;;;;;;;10.86;66.85;101382.75;5025829;28;20036;-77
2021/11/21 07:04:50;;;;;;;7.78;0.88;;;;;;;10.85;66.37;101384.53;5027549;28;20093;-76
2021/11/21 07:07:16;;;;;;;8.73;1.10;;;;;;;10.84;66.33;101387.97;5051227;28;20044;-77
2021/11/21 07:09:44;;;;;;;8.82;1.10;;;;;;;10.77;65.54;101401.72;5056489;28;20587;-77
2021/11/21 07:12:11;;;;;;;9.80;1.50;;;;;;;10.61;65.90;101401.38;5041837;28;20047;-75
2021/11/21 07:14:36;;;;;;;9.68;1.20;;;;;;;10.70;66.47;101402.44;5037091;28;20044;-76
2021/11/21 07:17:02;;;;;;;11.63;1.13;;;;;;;10.67;67.18;101406.72;5046140;28;20048;-75
2021/11/21 07:19:28;;;;;;;11.00;1.30;;;;;;;10.47;67.33;101403.69;5056600;28;20713;-77
2021/11/21 07:21:55;;;;;;;8.65;1.20;;;;;;;10.40;67.60;101413.09;5051345;28;20127;-76
2021/11/21 07:24:21;;;;;;;10.35;1.13;;;;;;;10.54;67.50;101406.47;5041103;28;20135;-75
2021/11/21 07:26:46;;;;;;;7.80;1.02;;;;;;;10.46;67.21;101401.91;5037599;28;20043;-76
2021/11/21 07:29:12;;;;;;;8.63;1.23;;;;;;;10.52;67.72;101413.34;5008619;28;20040;-76
2021/11/21 07:31:37;;;;;;;10.50;1.27;;;;;;;10.34;67.84;101418.16;5050427;28;20609;-78
2021/11/21 07:34:03;;;;;;;10.68;1.00;;;;;;;10.34;67.42;101418.16;5039889;28;20044;-76
2021/11/21 07:36:29;;;;;;;12.35;1.10;;;;;;;10.24;68.17;101420.53;5039624;28;20595;-76
2021/11/21 07:38:54;;;;;;;7.22;1.30;;;;;;;10.25;68.14;101417.06;5047160;28;20036;-76
2021/11/21 07:41:20;;;;;;;8.15;1.30;;;;;;;10.21;68.46;101425.66;5031521;28;20044;-76
2021/11/21 07:43:45;;;;;;;9.68;1.40;;;;;;;10.29;69.43;101431.94;5030240;28;20032;-76
2021/11/21 07:46:11;;;;;;;7.07;1.10;;;;;;;10.36;69.54;101436.44;5029890;28;20095;-76
2021/11/21 07:48:37;;;;;;;10.63;1.15;;;;;;;10.27;70.45;101444.03;5030336;28;20254;-76
2021/11/21 07:51:03;;;;;;;15.50;1.20;;;;;;;9.99;72.20;101438.16;5047353;28;20737;-76
2021/11/21 07:53:28;;;;;;;10.93;1.52;;;;;;;10.02;71.43;101433.00;5042116;28;20154;-75
2021/11/21 07:55:55;;;;;;;7.38;1.00;;;;;;;10.03;72.37;101432.16;5051503;28;20047;-75
2021/11/21 07:58:20;;;;;;;9.25;1.33;;;;;;;10.04;72.82;101436.53;5022133;28;20705;-75
2021/11/21 08:00:46;;;;;;;10.57;1.30;;;;;;;10.00;72.65;101436.41;5033244;28;20044;-76
2021/11/21 08:03:12;;;;;;;10.02;1.20;;;;;;;9.87;71.63;101439.56;5046804;28;20036;-75
2021/11/21 08:05:38;;;;;;;10.10;1.23;;;;;;;9.95;71.29;101436.28;5033826;28;20047;-74
2021/11/21 08:08:03;;;;;;;7.43;1.38;;;;;;;9.96;71.45;101444.97;5040669;28;20362;-75
2021/11/21 08:10:30;;;;;;;11.52;1.40;;;;;;;9.90;71.93;101445.72;5029908;28;20837;-76
2021/11/21 08:12:55;;;;;;;10.27;1.20;;;;;;;9.86;73.18;101445.59;5017121;28;20643;-75
2021/11/21 08:15:21;;;;;;;11.43;1.65;;;;;;;9.81;73.23;101453.31;5043671;28;20146;-75
2021/11/21 08:17:46;;;;;;;9.57;1.17;;;;;;;9.73;73.67;101454.81;5032949;28;20518;-75
2021/11/21 08:20:12;;;;;;;7.07;1.20;;;;;;;9.65;74.56;101451.13;5030813;28;20024;-71
2021/11/21 08:22:37;;;;;;;6.30;0.90;;;;;;;9.62;74.75;101456.28;5045238;28;20127;-74
2021/11/21 08:25:04;;;;;;;5.97;1.10;;;;;;;9.58;75.34;101454.41;5051587;28;20036;-75
2021/11/21 08:27:29;;;;;;;6.18;1.10;;;;;;;9.55;75.49;101450.03;5050182;28;20046;-77
2021/11/21 08:29:55;;;;;;;6.60;1.10;;;;;;;9.53;75.48;101451.69;5056699;28;20138;-75
2021/11/21 08:32:20;;;;;;;8.38;1.23;;;;;;;9.53;75.94;101450.81;5045639;28;20044;-75
2021/11/21 08:34:45;;;;;;;6.35;1.30;;;;;;;9.50;76.26;101451.63;5042309;28;20083;-75
2021/11/21 08:37:12;;;;;;;5.35;1.20;;;;;;;9.49;75.97;101452.47;5035110;28;20212;-75
2021/11/21 08:39:38;;;;;;;7.70;1.15;;;;;;;9.50;76.51;101463.75;5043159;28;20035;-75
2021/11/21 08:42:03;;;;;;;6.32;0.98;;;;;;;9.51;76.36;101452.50;5053847;28;20043;-76
2021/11/21 08:44:29;;;;;;;6.32;1.10;;;;;;;9.54;76.79;101456.06;5022925;28;20298;-75
2021/11/21 08:46:54;;;;;;;6.43;1.13;;;;;;;9.63;76.19;101453.72;5057289;28;20701;-75
2021/11/21 08:49:20;;;;;;;5.82;1.33;;;;;;;9.78;76.65;101456.69;5049629;28;20307;-75
2021/11/21 08:51:46;;;;;;;10.75;1.40;;;;;;;9.90;75.48;101457.84;5061739;28;20028;-76
2021/11/21 08:54:12;;;;;;;8.30;1.10;;;;;;;10.07;75.36;101452.22;5044445;28;20054;-76
2021/11/21 08:56:37;;;;;;;9.35;1.63;;;;;;;10.10;73.60;101460.13;5038052;28;20040;-76
2021/11/21 08:59:03;;;;;;;11.55;1.48;;;;;;;9.97;70.59;101454.56;5035840;28;20050;-76
2021/11/21 09:01:28;;;;;;;14.85;1.40;;;;;;;10.01;69.86;101456.38;5052316;28;20076;-76
2021/11/21 09:03:54;;;;;;;11.23;1.17;;;;;;;10.00;68.65;101457.25;5018432;28;20040;-74
2021/11/21 09:06:19;;;;;;;10.60;1.58;;;;;;;10.14;68.54;101459.34;5039626;28;20040;-75
2021/11/21 09:08:45;;;;;;;10.57;1.35;;;;;;;10.09;67.56;101455.75;5055008;28;20043;-74
2021/11/21 09:11:10;;;;;;;7.03;1.00;;;;;;;10.21;68.59;101455.19;5049341;28;20071;-73
2021/11/21 09:13:35;;;;;;;7.32;1.30;;;;;;;10.20;68.75;101458.63;5052193;28;20155;-74
2021/11/21 09:16:01;;;;;;;11.57;1.27;;;;;;;10.24;68.50;101459.63;5051605;28;20114;-76
2021/11/21 09:18:26;;;;;;;6.25;1.10;;;;;;;10.34;68.61;101453.75;5038692;28;20692;-75
2021/11/21 09:20:53;;;;;;;6.63;1.08;;;;;;;10.44;68.80;101460.94;5033936;28;20559;-76
2021/11/21 09:23:19;;;;;;;13.73;1.40;;;;;;;10.42;67.48;101462.66;5046997;28;20051;-76
2021/11/21 09:25:44;;;;;;;12.98;1.38;;;;;;;10.61;67.12;101459.63;5040098;28;20356;-76
2021/11/21 09:28:10;;;;;;;8.93;1.08;;;;;;;10.81;67.86;101457.44;5042345;28;20245;-76
2021/11/21 09:30:36;;;;;;;8.88;1.10;;;;;;;10.87;66.67;101455.84;5025214;28;20044;-78
2021/11/21 09:33:01;;;;;;;7.95;0.90;;;;;;;11.05;66.60;101460.56;5039803;28;20376;-76
2021/11/21 09:35:26;;;;;;;6.72;1.02;;;;;;;11.07;65.98;101460.59;5028045;28;20044;-75
2021/11/21 09:37:52;;;;;;;10.15;1.38;;;;;;;11.13;65.10;101460.72;5045665;28;20044;-75
2021/11/21 09:40:17;;;;;;;6.28;1.15;;;;;;;11.27;65.65;101465.38;5031749;28;20540;-77
2021/11/21 09:42:43;;;;;;;6.68;1.05;;;;;;;11.28;65.36;101464.50;5033706;28;20048;-76
2021/11/21 09:45:10;;;;;;;7.53;1.10;;;;;;;11.39;65.24;101472.56;5045904;28;20198;-76
2021/11/21 09:47:36;;;;;;;10.00;1.25;;;;;;;11.37;64.84;101463.81;5037783;28;20673;-77
2021/11/21 09:50:09;;;;;;;10.32;0.95;;;;;;;11.46;64.21;101471.84;5039440;28;20042;-76
2021/11/21 09:52:35;;;;;;;10.35;1.33;;;;;;;11.33;62.29;101465.50;5040108;28;20405;-76
2021/11/21 09:55:00;;;;;;;7.93;1.10;;;;;;;11.38;61.67;101466.47;5054819;28;20620;-79
2021/11/21 09:57:28;;;;;;;9.20;1.20;;;;;;;11.52;63.18;101468.47;5042884;28;20043;-77
2021/11/21 09:59:59;;;;;;;10.43;1.10;;;;;;;11.46;61.45;101464.00;5043572;28;20039;-77
2021/11/21 10:02:33;;;;;;;4.35;0.82;;;;;;;11.48;61.64;101459.69;5042557;28;20626;-78
2021/11/21 10:05:00;;;;;;;9.25;1.10;;;;;;;11.63;62.18;101461.72;5034491;28;20039;-76
2021/11/21 10:07:31;;;;;;;4.80;0.90;;;;;;;11.59;61.58;101476.44;5041015;28;20044;-78
2021/11/21 10:09:58;;;;;;;4.53;0.80;;;;;;;11.65;62.22;101468.69;5047205;28;20180;-78
2021/11/21 10:12:25;;;;;;;6.05;1.15;;;;;;;11.50;62.53;101472.78;5041469;28;20040;-76
2021/11/21 10:15:07;;;;;;;9.30;1.48;;;;;;;11.40;62.01;101469.13;5023471;28;20043;-76
2021/11/21 10:17:34;;;;;;;8.93;1.00;;;;;;;11.70;62.33;101471.44;5033392;28;20126;-77
2021/11/21 10:20:10;;;;;;;5.97;1.00;;;;;;;11.69;61.47;101474.88;5052258;28;20048;-76
2021/11/21 10:23:00;;;;;;;9.10;1.10;;;;;;;11.69;60.72;101481.00;5046698;28;20044;-78
2021/11/21 10:25:31;;;;;;;5.60;0.80;;;;;;;11.82;60.14;101479.50;5035485;28;20123;-76
2021/11/21 10:28:13;;;;;;;6.78;0.90;;;;;;;11.89;60.57;101470.06;5038423;28;20810;-77
2021/11/21 10:31:04;;;;;;;6.57;1.05;;;;;;;12.01;61.56;101465.03;5055480;28;20050;-77
2021/11/21 10:33:49;;;;;;;9.63;0.98;;;;;;;11.94;61.87;101466.66;5033766;28;20054;-77
2021/11/21 10:36:20;;;;;;;4.85;0.80;;;;;;;11.87;59.85;101479.59;5035124;28;20067;-80
2021/11/21 10:38:57;;;;;;;3.40;0.70;;;;;;;11.92;59.46;101470.09;5038182;28;20052;-76
2021/11/21 10:41:39;;;;;;;6.90;1.10;;;;;;;11.88;59.46;101469.16;5050068;28;20048;-76
2021/11/21 10:44:06;;;;;;;3.70;0.80;;;;;;;11.89;59.19;101468.31;5045040;28;20044;-76
2021/11/21 10:46:37;;;;;;;6.57;0.80;;;;;;;11.75;58.23;101467.19;5038511;28;20028;-77
2021/11/21 10:49:21;;;;;;;5.68;0.60;;;;;;;11.83;59.32;101468.22;5044647;28;20498;-77
2021/11/21 10:51:49;;;;;;;5.32;0.88;;;;;;;11.85;58.17;101463.88;5043607;28;20036;-76
2021/11/21 10:54:19;;;;;;;5.82;1.02;;;;;;;12.00;59.25;101464.16;5014594;28;20044;-77
2021/11/21 10:56:46;;;;;;;10.50;1.05;;;;;;;11.98;58.81;101468.47;5042207;28;20799;-76
2021/11/21 10:59:12;;;;;;;6.05;0.90;;;;;;;12.04;58.15;101460.72;5038603;28;20035;-77
2021/11/21 11:01:37;;;;;;;5.85;0.98;;;;;;;12.27;58.50;101455.88;5045867;28;20451;-77
2021/11/21 11:04:11;;;;;;;4.50;0.80;;;;;;;12.72;59.53;101458.28;5045253;28;20082;-77
2021/11/21 11:06:38;;;;;;;5.45;1.20;;;;;;;12.30;56.41;101463.78;5028829;28;20047;-76
2021/11/21 11:09:22;;;;;;;3.63;0.85;;;;;;;11.86;57.66;101464.75;5035595;28;20036;-77
2021/11/21 11:11:50;;;;;;;9.20;1.10;;;;;;;12.11;58.77;101470.44;5047700;28;20040;-78
2021/11/21 11:14:18;;;;;;;9.45;1.30;;;;;;;11.88;59.74;101470.91;5020345;28;20040;-76
2021/11/21 11:16:55;;;;;;;6.43;1.10;;;;;;;11.56;60.94;101468.56;5031381;28;20123;-79
2021/11/21 11:19:20;;;;;;;9.23;1.30;;;;;;;11.61;61.23;101474.72;5036593;28;20192;-75
2021/11/21 11:21:49;;;;;;;7.30;0.90;;;;;;;11.96;60.62;101477.13;5021519;28;20500;-75